Unionville, Missouri
Current Conditions -  °F | °C
As of 8:10 AM on Thursday 29 Jan 2015 (Local Time) from KTVK Reporting Station
Overcast Overcast  
Wind Chill: 25°   Ceiling: 1400
Heat Index: 36°   Visibility: 10mi
Dew Point: 32°   Wind: 18mph
Humidity: 87%   Direction: 310°NW
Pressure: 30.13"   Gusts: 24mph
Location:  40.48°N, 93°W
Report Text: KTVK 291410Z AUTO 31016G21KT 10SM OVC014 02/00 A3013 RMK AO2
Loading
Personal Weather Stations






























Interactive Weather Map New forecast layout! Learn more

10-Day Weather Forecast

Advertisements
Track Severe Weather on mobile